HTZA/ZNZ METAR and TAF weather

Enter ICAO airport designator
Station Type Date Time Source
HTZA METAR 2021/09/23 18:00 UTC NOAA

HTZA 231800Z 09006KT 9999 FEW018 25/22 Q1015 NOSIG


Station Type Date Time Source
HTZA Decoded METAR 2021/09/23 18:00 UTC NOAA

Zanzibar / Kisauni, Tanzania (HTZA) 06-13S 039-13E 15M
Sep 23, 2021 - 02:00 PM EDT / 2021.09.23 1800 UTC
Wind: from the E (090 degrees) at 7 MPH (6 KT):0
Visibility: greater than 7 mile(s):0
Sky conditions: mostly clear
Temperature: 77 F (25 C)
Dew Point: 71 F (22 C)
Relative Humidity: 83%
Pressure (altimeter): 29.97 in. Hg (1015 hPa)
ob: HTZA 231800Z 09006KT 9999 FEW018 25/22 Q1015 NOSIG
cycle: 18

Station Type Date Time Source
HTZA TAF 2021/09/23 18:33 UTC NOAA

HTZA 231700Z 2318/2418 12005KT 9999 FEW015
BECMG 2403/2405 21010KT BKN016
BECMG 2410/2412 12010KT FEW022

Example: see airport list